Weather - Helsinki Query any day in the database

Current weather  

Weather data for a selected day (2006-01-01 -2020-12-04)
Enter date:     <-     scroll days         ->
day curves
Low temperature°C -4.020:50
High temperature°C -1.014:20
Low wind chill°C -10.420:20
Average temperature°C -2.3 
High wind speed (10 min) m/s 5.820:20
Low pressurehPa 980.006:50
High pressurehPa 993.023:50
Low R.H% 8519:20
High R.H% 10008:20
High precipitation (1h)mm 1.605:50
Total precipitation of the daymm 5.9 
Day weather data as a table
Date Time Temp
°C
Chill
°C
Pressure
hPA
Wind
m/s
Hum
%
Precip
mm
2016-02-03 23:50:00 -2.0  -7.1  993.0 4.5 86 -
2016-02-03 23:20:00 -2.0  -7.1  993.0 4.5 86 -
2016-02-03 22:50:00 -2.0  -6.4  992.0 3.6 86 -
2016-02-03 22:20:00 -3.0  -8.4  992.0 4.5 86 -
2016-02-03 21:50:00 -3.0  -8.0  991.0 4.0 86 -
2016-02-03 21:20:00 -3.0  -6.8  991.0 2.7 86 -
2016-02-03 20:50:00 -4.0  -9.2  991.0 4.0 92 -
2016-02-03 20:20:00 -4.0  -10.4  991.0 5.8 92 -
2016-02-03 19:50:00 -4.0  -10.2  990.0 5.4 85 -
2016-02-03 19:20:00 -4.0  -8.9  990.0 3.6 85 -
2016-02-03 18:50:00 -4.0  -8.9  989.0 3.6 92 -
2016-02-03 18:20:00 -3.0  -7.2  989.0 3.1 92 -
2016-02-03 17:50:00 -3.0  -8.0  988.0 4.0 92 -
2016-02-03 17:20:00 -2.0  -6.8  988.0 4.0 86 -
2016-02-03 16:50:00 -2.0  -6.4  987.0 3.6 86 -
2016-02-03 16:20:00 -2.0  -6.0  986.0 3.1 86 -
2016-02-03 15:50:00 -2.0  -6.4  986.0 3.6 86 -
2016-02-03 15:20:00 -2.0  -6.0  985.0 3.1 86 -
2016-02-03 14:50:00 -2.0  -5.6  985.0 2.7 86 -
2016-02-03 14:20:00 -1.0  -5.2  984.0 3.6 86 -
2016-02-03 13:50:00 -1.0  -5.2  984.0 3.6 86 -
2016-02-03 13:20:00 -2.0  -6.0  984.0 3.1 92 -
2016-02-03 12:50:00 -2.0  -6.4  983.0 3.6 92 0.1
2016-02-03 12:20:00 -2.0  -6.4  983.0 3.6 92 -
2016-02-03 11:50:00 -2.0  -6.8  983.0 4.0 92 0.1
2016-02-03 11:20:00 -2.0  -6.8  983.0 4.0 92 -
2016-02-03 10:50:00 -2.0  -6.8  982.0 4.0 92 0.2
2016-02-03 10:20:00 -2.0  -6.4  982.0 3.6 92 -
2016-02-03 09:50:00 -2.0  -5.6  982.0 2.7 92 0.3
2016-02-03 09:20:00 -2.0  -6.0  982.0 3.1 92 -
2016-02-03 08:50:00 -2.0  -6.0  981.0 3.1 92 0.4
2016-02-03 08:20:00 -2.0  -6.0  981.0 3.1 100 -
2016-02-03 07:50:00 -2.0  -6.4  981.0 3.6 100 0.6
2016-02-03 07:20:00 -2.0  -6.0  981.0 3.1 92 -
2016-02-03 06:50:00 -2.0  -6.0  980.0 3.1 100 1.3
2016-02-03 06:20:00 -2.0  -5.6  981.0 2.7 100 -
2016-02-03 05:50:00 -2.0  -5.1  980.0 2.2 100 1.6
2016-02-03 05:20:00 -2.0  -5.1  980.0 2.2 92 -
2016-02-03 04:50:00 -2.0  -5.1  980.0 2.2 92 1.0
2016-02-03 04:20:00 -2.0  -5.6  980.0 2.7 92 -
2016-02-03 03:50:00 -2.0  -3.7  980.0 1.3 92 0.3
2016-02-03 03:20:00 -2.0  -5.1  980.0 2.2 100 -
2016-02-03 02:50:00 -2.0  -2.8  980.0 0.9 100 -
2016-02-03 02:20:00 -2.0  -2.8  980.0 0.9 100 -
2016-02-03 01:50:00 -2.0  -2.8  980.0 0.9 100 -
2016-02-03 01:20:00 -2.0  -2.8  980.0 0.9 100 -
2016-02-03 00:50:00 -2.0  -5.1  980.0 2.2 100 -
2016-02-03 00:20:00 -1.0  -4.4  980.0 2.7 92 -
Unit conversions: